createdAt,value
2022-09-28T00:00:54.737Z,98940.19
2022-09-28T00:03:59.348Z,98937.72
2022-09-28T00:07:01.939Z,98935.66
2022-09-28T00:10:05.184Z,98939.22
2022-09-28T00:13:08.237Z,98937.03
2022-09-28T00:16:14.910Z,98936.19
2022-09-28T00:19:18.199Z,98925.63
2022-09-28T00:22:21.214Z,98920.22
2022-09-28T00:25:25.010Z,98941.59
2022-09-28T00:28:27.848Z,98949.84
2022-09-28T00:31:33.241Z,98943.16
2022-09-28T00:34:43.223Z,98943.69
2022-09-28T00:37:45.832Z,98954.19
2022-09-28T00:40:48.751Z,98962.06
2022-09-28T00:43:52.529Z,98957.03
2022-09-28T00:47:26.649Z,98948.03
2022-09-28T00:50:32.145Z,98945.97
2022-09-28T00:53:37.968Z,98941.84
2022-09-28T00:56:46.221Z,98937.94
2022-09-28T00:59:49.917Z,98958.63
2022-09-28T01:02:53.123Z,98947.03
2022-09-28T01:05:59.103Z,98952.66
2022-09-28T01:09:05.930Z,98951.28
2022-09-28T01:12:08.986Z,98950.00
2022-09-28T01:15:12.089Z,98959.63
2022-09-28T01:18:25.063Z,98965.56
2022-09-28T01:21:27.791Z,98961.78
2022-09-28T01:24:48.322Z,98955.38
2022-09-28T01:27:57.735Z,98967.28
2022-09-28T01:31:10.652Z,98973.25
2022-09-28T01:34:34.977Z,98965.72
2022-09-28T01:37:46.543Z,98959.41
2022-09-28T01:40:50.685Z,98967.56
2022-09-28T01:44:02.986Z,98962.50
2022-09-28T01:47:11.713Z,98956.75
2022-09-28T01:50:18.651Z,98960.19
2022-09-28T01:53:27.924Z,98957.03
2022-09-28T01:56:40.302Z,98962.06
2022-09-28T01:59:53.355Z,98965.44
2022-09-28T02:03:19.296Z,98973.88
2022-09-28T02:06:28.127Z,98956.94
2022-09-28T02:09:47.866Z,98961.69
2022-09-28T02:12:57.364Z,98965.50
2022-09-28T02:16:06.955Z,98962.41
2022-09-28T02:19:13.190Z,98976.12
2022-09-28T02:22:24.608Z,98979.41
2022-09-28T02:25:38.313Z,98985.00
2022-09-28T02:28:41.113Z,98984.41
2022-09-28T02:31:44.335Z,98977.81
2022-09-28T02:34:47.404Z,98988.00
2022-09-28T02:37:50.528Z,98991.66
2022-09-28T02:41:38.412Z,98996.34
2022-09-28T02:44:58.913Z,98991.88
2022-09-28T02:48:43.087Z,98989.22
2022-09-28T02:51:58.238Z,98979.06
2022-09-28T02:55:23.527Z,98989.38
2022-09-28T02:59:06.750Z,98990.22
2022-09-28T03:02:15.194Z,99000.13
2022-09-28T03:05:21.323Z,98998.94
2022-09-28T03:08:43.031Z,99007.75
2022-09-28T03:11:53.885Z,99012.59
2022-09-28T03:15:28.654Z,99013.56
2022-09-28T03:18:33.077Z,99009.69
2022-09-28T03:21:39.291Z,99011.50
2022-09-28T03:24:42.168Z,99009.34
2022-09-28T03:27:45.220Z,99020.75
2022-09-28T03:30:48.288Z,99009.28
2022-09-28T03:33:51.551Z,99006.94
2022-09-28T03:36:54.434Z,99000.09
2022-09-28T03:39:57.126Z,99015.38
2022-09-28T03:43:01.223Z,99012.13
2022-09-28T03:46:06.764Z,99007.91
2022-09-28T03:49:10.782Z,99017.59
2022-09-28T03:52:14.269Z,99020.97
2022-09-28T03:55:17.289Z,99006.09
2022-09-28T03:58:21.423Z,99006.84
2022-09-28T04:01:24.487Z,98997.38
2022-09-28T04:04:30.348Z,99001.38
2022-09-28T04:07:33.117Z,99001.59
2022-09-28T04:10:36.313Z,99002.59
2022-09-28T04:13:42.323Z,99004.13
2022-09-28T04:16:48.236Z,98989.81
2022-09-28T04:19:51.810Z,98995.50
2022-09-28T04:23:40.546Z,98988.97
2022-09-28T04:26:52.137Z,98990.06
2022-09-28T04:30:04.213Z,98987.50
2022-09-28T04:33:08.766Z,98992.81
2022-09-28T04:36:15.161Z,99000.25
2022-09-28T04:39:21.866Z,99003.19
2022-09-28T04:42:55.389Z,98997.81
2022-09-28T04:46:39.322Z,99005.88
2022-09-28T04:49:43.745Z,99003.34
2022-09-28T04:52:46.513Z,99003.53
2022-09-28T04:56:02.372Z,99000.97
2022-09-28T04:59:05.495Z,99000.31
2022-09-28T05:02:15.181Z,98999.22
2022-09-28T05:05:18.890Z,98998.25
2022-09-28T05:08:22.429Z,99004.72
2022-09-28T05:11:26.023Z,99002.19
2022-09-28T05:14:29.178Z,99004.75
2022-09-28T05:17:31.920Z,99011.78
2022-09-28T05:24:31.863Z,99014.34
2022-09-28T05:27:57.183Z,99019.25
2022-09-28T05:31:02.167Z,99023.69
2022-09-28T05:34:07.348Z,99023.59
2022-09-28T05:37:10.102Z,99028.03
2022-09-28T05:40:13.841Z,99024.59
2022-09-28T05:43:16.968Z,99024.00
2022-09-28T05:46:21.242Z,99019.94
2022-09-28T05:49:46.186Z,99013.19
2022-09-28T05:52:58.553Z,99009.03
2022-09-28T05:56:01.598Z,99005.59
2022-09-28T05:59:06.287Z,99006.06
2022-09-28T06:02:10.861Z,99011.16
2022-09-28T06:05:14.002Z,99001.41
2022-09-28T06:08:17.074Z,99000.06
2022-09-28T06:11:20.433Z,98994.63
2022-09-28T06:14:23.592Z,98999.06
2022-09-28T06:17:26.669Z,98993.50
2022-09-28T06:20:34.910Z,98990.84
2022-09-28T06:23:41.039Z,98998.22
2022-09-28T06:26:45.462Z,98993.00
2022-09-28T06:29:48.801Z,98991.41
2022-09-28T06:32:57.699Z,98984.59
2022-09-28T06:36:01.921Z,98996.19
2022-09-28T06:39:05.022Z,98998.59
2022-09-28T06:42:08.979Z,98996.47
2022-09-28T06:45:13.711Z,98993.50
2022-09-28T06:48:18.400Z,99000.44
2022-09-28T06:51:21.282Z,99004.38
2022-09-28T06:54:25.862Z,99003.50
2022-09-28T06:57:28.627Z,99011.56
2022-09-28T07:00:35.616Z,99011.50
2022-09-28T07:03:39.343Z,99010.09
2022-09-28T07:06:47.809Z,99012.88
2022-09-28T07:09:56.679Z,99015.13
2022-09-28T07:13:05.594Z,99016.25
2022-09-28T07:16:08.949Z,99007.12
2022-09-28T07:19:11.930Z,99010.03
2022-09-28T07:22:18.970Z,99009.78
2022-09-28T07:25:24.215Z,99004.41
2022-09-28T07:28:30.678Z,99000.81
2022-09-28T07:31:35.222Z,99000.00
2022-09-28T07:34:43.867Z,98995.44
2022-09-28T07:37:46.888Z,99000.47
2022-09-28T07:41:08.444Z,99004.31
2022-09-28T07:44:11.525Z,99006.41
2022-09-28T07:47:14.770Z,99007.75
2022-09-28T07:50:22.701Z,98997.63
2022-09-28T07:53:25.984Z,98995.91
2022-09-28T07:56:31.013Z,98981.22
2022-09-28T07:59:33.832Z,98977.47
2022-09-28T08:02:38.185Z,98975.44
2022-09-28T08:05:42.907Z,98972.47
2022-09-28T08:08:45.915Z,98983.59
2022-09-28T08:11:49.798Z,98975.09
2022-09-28T08:14:55.930Z,98992.47
2022-09-28T08:18:02.033Z,98991.50
2022-09-28T08:21:25.030Z,98990.69
2022-09-28T08:24:31.082Z,98998.47
2022-09-28T08:27:34.267Z,98999.50
2022-09-28T08:30:38.135Z,99010.66
2022-09-28T08:33:42.183Z,98992.38
2022-09-28T08:36:49.143Z,98992.06
2022-09-28T08:39:53.497Z,98989.47
2022-09-28T08:43:00.078Z,98972.81
2022-09-28T08:46:03.599Z,98985.09
2022-09-28T08:49:30.583Z,98976.97
2022-09-28T08:52:39.149Z,98983.34
2022-09-28T08:55:57.303Z,98977.81
2022-09-28T08:59:05.736Z,98980.66
2022-09-28T09:02:33.661Z,98974.72
2022-09-28T09:05:56.186Z,98978.22
2022-09-28T09:09:13.540Z,98976.59
2022-09-28T09:12:33.400Z,98971.13
2022-09-28T09:15:48.241Z,98967.31
2022-09-28T09:19:00.155Z,98969.72
2022-09-28T09:22:19.952Z,98962.63
2022-09-28T09:25:55.088Z,98968.41
2022-09-28T09:29:51.851Z,98970.81
2022-09-28T09:33:27.248Z,98973.81
2022-09-28T09:36:53.899Z,98979.50
2022-09-28T09:40:36.524Z,98964.94
2022-09-28T09:44:18.420Z,98963.19
2022-09-28T09:47:32.292Z,98948.56
2022-09-28T09:50:55.769Z,98963.19
2022-09-28T09:54:24.052Z,98966.78
2022-09-28T09:57:41.391Z,98960.50
2022-09-28T10:00:47.370Z,98959.94
2022-09-28T10:03:52.845Z,98964.47
2022-09-28T10:07:09.844Z,98968.44
2022-09-28T10:10:50.952Z,98961.25
2022-09-28T10:13:54.164Z,98967.25
2022-09-28T10:17:05.831Z,98978.13
2022-09-28T10:30:40.380Z,98965.09
2022-09-28T10:33:43.331Z,98968.25
2022-09-28T10:36:51.434Z,98960.09
2022-09-28T10:39:56.419Z,98967.62
2022-09-28T10:43:02.138Z,98961.44
2022-09-28T10:46:10.746Z,98970.28
2022-09-28T10:49:17.656Z,98962.25
2022-09-28T10:52:41.699Z,98962.69
2022-09-28T10:59:30.479Z,98954.41
2022-09-28T11:02:38.693Z,98951.69
2022-09-28T11:05:43.332Z,98940.63
2022-09-28T11:08:50.129Z,98942.44
2022-09-28T11:15:19.767Z,98933.69
2022-09-28T11:18:32.552Z,98931.59
2022-09-28T11:21:43.770Z,98926.66
2022-09-28T11:24:47.681Z,98926.19
2022-09-28T11:27:53.715Z,98919.22
2022-09-28T11:31:01.533Z,98919.31
2022-09-28T11:34:31.364Z,98911.56
2022-09-28T11:37:55.073Z,98901.97
2022-09-28T11:41:24.479Z,98903.94
2022-09-28T11:44:46.526Z,98890.47
2022-09-28T11:47:58.870Z,98894.56
2022-09-28T11:54:38.990Z,98896.06
2022-09-28T11:57:46.624Z,98884.03
2022-09-28T12:01:39.009Z,98884.41
2022-09-28T12:08:53.692Z,98880.91
2022-09-28T12:12:03.929Z,98886.00
2022-09-28T12:15:34.919Z,98872.84
2022-09-28T12:18:57.329Z,98865.00
2022-09-28T12:22:09.184Z,98866.25
2022-09-28T12:25:33.774Z,98862.06
2022-09-28T12:28:55.563Z,98861.00
2022-09-28T12:32:16.834Z,98866.47
2022-09-28T12:35:57.362Z,98862.22
2022-09-28T12:39:46.801Z,98858.94
2022-09-28T12:43:20.086Z,98854.94
2022-09-28T12:46:42.482Z,98845.09
2022-09-28T12:53:50.847Z,98840.41
2022-09-28T12:57:21.809Z,98842.09
2022-09-28T13:01:00.486Z,98838.97
2022-09-28T13:04:26.593Z,98841.44
2022-09-28T13:07:50.941Z,98850.22
2022-09-28T13:11:15.860Z,98852.13
2022-09-28T13:14:54.615Z,98850.50
2022-09-28T13:18:27.562Z,98855.31
2022-09-28T13:21:49.072Z,98840.16
2022-09-28T13:24:56.704Z,98845.97
2022-09-28T13:28:05.237Z,98838.81
2022-09-28T13:31:10.818Z,98844.88
2022-09-28T13:34:20.636Z,98832.63
2022-09-28T13:41:04.848Z,98820.41
2022-09-28T13:44:16.706Z,98819.41
2022-09-28T13:47:44.775Z,98813.88
2022-09-28T13:51:09.383Z,98824.28
2022-09-28T13:54:26.010Z,98819.94
2022-09-28T13:57:42.369Z,98827.69
2022-09-28T14:00:59.473Z,98821.19
2022-09-28T14:04:21.951Z,98824.97
2022-09-28T14:10:52.675Z,98815.12
2022-09-28T14:13:59.001Z,98814.25
2022-09-28T14:17:28.293Z,98814.44
2022-09-28T14:20:48.627Z,98813.50
2022-09-28T14:24:13.821Z,98810.84
2022-09-28T14:27:34.264Z,98803.06
2022-09-28T14:30:43.417Z,98795.00
2022-09-28T14:33:59.928Z,98799.66
2022-09-28T14:37:31.970Z,98803.19
2022-09-28T14:41:11.270Z,98796.25
2022-09-28T14:44:18.800Z,98797.37
2022-09-28T14:47:35.908Z,98798.53
2022-09-28T14:50:55.832Z,98791.13
2022-09-28T14:54:05.880Z,98791.75
2022-09-28T14:57:18.363Z,98782.19
2022-09-28T15:00:24.562Z,98784.31
2022-09-28T15:03:30.842Z,98784.72
2022-09-28T15:06:49.190Z,98786.59
2022-09-28T15:09:54.323Z,98774.25
2022-09-28T15:13:01.311Z,98766.13
2022-09-28T15:16:10.472Z,98772.31
2022-09-28T15:19:24.599Z,98766.06
2022-09-28T15:22:28.383Z,98766.63
2022-09-28T15:25:32.930Z,98767.69
2022-09-28T15:28:36.874Z,98768.44
2022-09-28T15:31:39.897Z,98772.16
2022-09-28T15:34:51.635Z,98763.53
2022-09-28T15:38:04.261Z,98769.56
2022-09-28T15:41:12.478Z,98771.25
2022-09-28T15:44:15.544Z,98774.72
2022-09-28T15:47:27.479Z,98771.53
2022-09-28T15:50:33.503Z,98756.81
2022-09-28T15:53:44.073Z,98761.41
2022-09-28T15:56:57.782Z,98759.31
2022-09-28T16:00:01.126Z,98763.38
2022-09-28T16:03:06.804Z,98747.84
2022-09-28T16:06:10.803Z,98749.19
2022-09-28T16:09:34.629Z,98747.91
2022-09-28T16:12:58.872Z,98742.81
2022-09-28T16:16:02.247Z,98742.28
2022-09-28T16:19:05.933Z,98747.25
2022-09-28T16:22:18.781Z,98748.56
2022-09-28T16:25:25.858Z,98754.22
2022-09-28T16:28:35.042Z,98759.84
2022-09-28T16:31:41.456Z,98764.78
2022-09-28T16:34:44.267Z,98768.06
2022-09-28T16:38:03.465Z,98774.50
2022-09-28T16:41:06.499Z,98770.69
2022-09-28T16:44:20.817Z,98774.16
2022-09-28T16:47:23.931Z,98770.44
2022-09-28T16:50:27.814Z,98767.75
2022-09-28T16:53:49.046Z,98772.78
2022-09-28T16:56:51.918Z,98763.34
2022-09-28T16:59:54.598Z,98761.00
2022-09-28T17:02:59.996Z,98779.72
2022-09-28T17:06:08.551Z,98775.38
2022-09-28T17:09:16.019Z,98775.41
2022-09-28T17:12:22.990Z,98775.47
2022-09-28T17:59:53.935Z,98789.31
2022-09-28T18:09:41.918Z,98800.00
2022-09-28T18:12:45.748Z,98798.78
2022-09-28T18:15:52.221Z,98799.69
2022-09-28T18:18:55.477Z,98804.69
2022-09-28T18:21:58.544Z,98802.91
2022-09-28T18:25:01.858Z,98812.34
2022-09-28T18:28:04.767Z,98803.44
2022-09-28T18:31:12.741Z,98817.72
2022-09-28T18:34:15.824Z,98815.50
2022-09-28T18:48:50.680Z,98806.47
2022-09-28T18:51:54.456Z,98822.06
2022-09-28T18:55:18.031Z,98822.81
2022-09-28T18:58:47.575Z,98819.41
2022-09-28T19:02:11.706Z,98814.25
2022-09-28T19:05:14.740Z,98815.56
2022-09-28T19:08:17.810Z,98817.66
2022-09-28T19:11:20.845Z,98834.31
2022-09-28T19:14:23.879Z,98821.19
2022-09-28T19:17:27.860Z,98822.09
2022-09-28T19:20:32.972Z,98822.28
2022-09-28T19:23:37.382Z,98814.53
2022-09-28T19:26:41.772Z,98811.66
2022-09-28T19:29:44.852Z,98819.87
2022-09-28T19:32:47.636Z,98830.25
2022-09-28T19:35:58.711Z,98816.75
2022-09-28T19:39:03.515Z,98811.16
2022-09-28T19:42:07.261Z,98817.28
2022-09-28T19:45:10.849Z,98810.38
2022-09-28T19:48:13.743Z,98805.34
2022-09-28T19:51:16.405Z,98801.34
2022-09-28T19:54:19.506Z,98796.81
2022-09-28T19:57:27.886Z,98793.66
2022-09-28T20:00:33.988Z,98799.16
2022-09-28T20:03:38.689Z,98789.78
2022-09-28T20:06:42.443Z,98792.00
2022-09-28T20:09:45.742Z,98778.22
2022-09-28T20:12:48.402Z,98776.66
2022-09-28T20:15:51.342Z,98775.97
2022-09-28T20:18:58.452Z,98777.75
2022-09-28T20:22:03.088Z,98770.38
2022-09-28T20:25:06.605Z,98769.94
2022-09-28T20:28:09.725Z,98771.69
2022-09-28T20:31:15.383Z,98769.94
2022-09-28T20:34:18.350Z,98776.28
2022-09-28T20:37:20.954Z,98764.59
2022-09-28T20:40:23.912Z,98764.38
2022-09-28T20:43:27.955Z,98762.12
2022-09-28T20:46:31.012Z,98756.22
